createdAt,value
2023-02-11T00:03:11.904Z,98.82
2023-02-11T00:12:46.749Z,98.80
2023-02-11T00:22:19.451Z,98.67
2023-02-11T00:31:52.105Z,98.48
2023-02-11T00:41:25.388Z,98.65
2023-02-11T00:50:59.059Z,98.05
2023-02-11T01:00:32.809Z,97.44
2023-02-11T01:10:04.698Z,96.79
2023-02-11T01:19:40.092Z,96.52
2023-02-11T01:29:12.338Z,96.12
2023-02-11T01:38:45.913Z,95.62
2023-02-11T01:48:17.158Z,95.14
2023-02-11T01:57:48.245Z,94.98
2023-02-11T02:07:23.346Z,94.33
2023-02-11T02:16:55.359Z,93.40
2023-02-11T02:26:29.351Z,93.25
2023-02-11T02:36:00.886Z,93.32
2023-02-11T02:45:33.546Z,93.27
2023-02-11T02:55:05.335Z,92.89
2023-02-11T03:04:39.181Z,92.58
2023-02-11T03:14:11.346Z,92.76
2023-02-11T03:23:45.945Z,92.46
2023-02-11T03:33:18.742Z,92.38
2023-02-11T03:42:51.325Z,92.55
2023-02-11T03:52:22.770Z,92.85
2023-02-11T04:01:57.447Z,93.29
2023-02-11T04:11:30.098Z,93.52
2023-02-11T04:21:01.787Z,93.52
2023-02-11T04:30:36.062Z,93.44
2023-02-11T04:40:09.458Z,93.78
2023-02-11T04:49:39.083Z,94.31
2023-02-11T04:59:11.227Z,94.21
2023-02-11T05:08:44.691Z,93.88
2023-02-11T05:18:19.149Z,93.81
2023-02-11T05:27:50.355Z,94.08
2023-02-11T05:37:23.699Z,94.73
2023-02-11T05:46:55.052Z,95.21
2023-02-11T05:56:26.594Z,94.48
2023-02-11T06:05:59.170Z,93.90
2023-02-11T06:15:32.453Z,93.96
2023-02-11T06:25:04.212Z,94.24
2023-02-11T06:34:36.804Z,94.18
2023-02-11T06:44:07.365Z,94.11
2023-02-11T06:53:41.011Z,94.06
2023-02-11T07:03:16.350Z,93.71
2023-02-11T07:12:48.502Z,93.43
2023-02-11T07:22:23.719Z,93.60
2023-02-11T07:31:55.532Z,93.79
2023-02-11T07:41:30.893Z,94.16
2023-02-11T07:51:02.740Z,93.77
2023-02-11T08:00:36.664Z,93.54
2023-02-11T08:10:10.352Z,93.48
2023-02-11T08:19:43.695Z,93.79
2023-02-11T08:29:17.316Z,93.90
2023-02-11T08:38:52.836Z,93.77
2023-02-11T08:48:24.742Z,93.31
2023-02-11T08:58:07.569Z,93.08
2023-02-11T09:07:31.974Z,90.81
2023-02-11T09:17:04.783Z,89.52
2023-02-11T09:26:33.656Z,88.66
2023-02-11T09:36:04.689Z,87.49
2023-02-11T09:37:07.081Z,87.61
2023-02-11T09:46:40.165Z,86.28
2023-02-11T09:56:14.222Z,86.04
2023-02-11T09:57:27.822Z,85.28
2023-02-11T09:58:19.133Z,85.16
2023-02-11T09:59:21.505Z,84.58
2023-02-11T10:00:25.527Z,84.60
2023-02-11T10:01:29.514Z,84.25
2023-02-11T10:02:31.766Z,84.34
2023-02-11T10:03:34.231Z,84.04
2023-02-11T10:04:38.351Z,83.96
2023-02-11T10:05:42.097Z,84.13
2023-02-11T10:06:45.971Z,83.40
2023-02-11T10:07:48.241Z,83.10
2023-02-11T10:08:50.603Z,82.97
2023-02-11T10:09:54.595Z,82.88
2023-02-11T10:10:56.963Z,83.03
2023-02-11T10:11:59.393Z,82.96
2023-02-11T10:13:01.842Z,82.88
2023-02-11T10:14:05.865Z,82.66
2023-02-11T10:15:09.755Z,82.57
2023-02-11T10:16:12.233Z,82.83
2023-02-11T10:17:16.189Z,82.87
2023-02-11T10:18:18.554Z,82.69
2023-02-11T10:19:22.433Z,82.14
2023-02-11T10:28:52.149Z,82.37
2023-02-11T10:29:54.607Z,82.18
2023-02-11T10:30:57.092Z,82.28
2023-02-11T10:32:01.221Z,82.45
2023-02-11T10:33:03.452Z,82.40
2023-02-11T10:34:07.485Z,82.36
2023-02-11T10:35:09.704Z,81.76
2023-02-11T10:36:12.127Z,81.58
2023-02-11T10:37:16.173Z,81.59
2023-02-11T10:38:18.455Z,81.47
2023-02-11T10:39:20.907Z,81.29
2023-02-11T10:40:23.161Z,81.44
2023-02-11T10:41:27.213Z,81.62
2023-02-11T10:42:29.467Z,81.40
2023-02-11T10:43:31.858Z,81.32
2023-02-11T10:44:34.282Z,80.89
2023-02-11T10:45:36.725Z,80.70
2023-02-11T10:46:40.808Z,80.67
2023-02-11T10:47:43.058Z,80.63
2023-02-11T10:48:45.497Z,80.40
2023-02-11T10:49:47.786Z,80.53
2023-02-11T10:50:50.517Z,80.55
2023-02-11T10:51:52.702Z,80.67
2023-02-11T10:52:56.782Z,80.76
2023-02-11T10:53:59.104Z,80.97
2023-02-11T10:55:01.544Z,80.84
2023-02-11T10:56:05.569Z,80.74
2023-02-11T10:57:07.924Z,81.15
2023-02-11T10:58:10.314Z,80.61
2023-02-11T10:59:12.698Z,80.29
2023-02-11T11:00:16.767Z,79.85
2023-02-11T11:01:24.565Z,80.15
2023-02-11T11:02:22.960Z,79.95
2023-02-11T11:03:25.477Z,80.22
2023-02-11T11:04:29.322Z,80.12
2023-02-11T11:05:31.566Z,80.14
2023-02-11T11:06:35.562Z,80.65
2023-02-11T11:07:37.817Z,80.51
2023-02-11T11:08:40.436Z,80.47
2023-02-11T11:09:42.724Z,80.73
2023-02-11T11:10:46.743Z,81.11
2023-02-11T11:11:49.928Z,81.21
2023-02-11T11:12:52.332Z,81.54
2023-02-11T11:13:57.614Z,81.11
2023-02-11T11:14:59.825Z,81.19
2023-02-11T11:16:03.193Z,81.25
2023-02-11T11:17:07.040Z,81.35
2023-02-11T11:18:20.761Z,81.66
2023-02-11T11:19:11.688Z,81.40
2023-02-11T11:20:14.129Z,81.13
2023-02-11T11:21:16.531Z,80.93
2023-02-11T11:22:19.011Z,80.66
2023-02-11T11:23:21.465Z,80.68
2023-02-11T11:24:26.115Z,81.03
2023-02-11T11:25:27.934Z,81.50
2023-02-11T11:26:30.279Z,81.25
2023-02-11T11:27:32.705Z,81.31
2023-02-11T11:28:36.938Z,81.43
2023-02-11T11:29:39.121Z,81.06
2023-02-11T11:30:41.567Z,80.73
2023-02-11T11:31:43.976Z,80.57
2023-02-11T11:32:46.507Z,80.46
2023-02-11T11:33:48.832Z,80.46
2023-02-11T11:34:51.326Z,80.65
2023-02-11T11:35:54.592Z,80.68
2023-02-11T11:36:56.897Z,80.77
2023-02-11T11:38:01.830Z,80.45
2023-02-11T11:39:02.644Z,80.00
2023-02-11T11:40:05.063Z,79.86
2023-02-11T11:41:09.042Z,79.86
2023-02-11T11:42:11.317Z,80.08
2023-02-11T11:43:13.760Z,80.93
2023-02-11T11:44:16.163Z,80.96
2023-02-11T11:45:20.163Z,80.73
2023-02-11T11:46:24.088Z,80.41
2023-02-11T11:47:27.962Z,80.99
2023-02-11T11:48:31.232Z,81.58
2023-02-11T11:49:35.166Z,80.56
2023-02-11T11:50:37.441Z,80.42
2023-02-11T11:51:39.861Z,80.36
2023-02-11T11:52:42.239Z,79.91
2023-02-11T11:53:46.259Z,80.00
2023-02-11T11:54:48.583Z,79.46
2023-02-11T11:55:50.922Z,79.56
2023-02-11T11:56:53.345Z,79.67
2023-02-11T11:57:55.789Z,79.26
2023-02-11T11:58:59.120Z,79.01
2023-02-11T12:00:02.485Z,79.17
2023-02-11T12:09:33.129Z,81.64
2023-02-11T12:10:36.616Z,81.64
2023-02-11T12:11:39.990Z,81.48
2023-02-11T12:12:46.527Z,81.31
2023-02-11T12:13:46.189Z,81.71
2023-02-11T12:14:48.599Z,81.45
2023-02-11T12:15:51.009Z,81.47
2023-02-11T12:16:53.555Z,81.72
2023-02-11T12:17:55.878Z,81.81
2023-02-11T12:18:58.379Z,82.27
2023-02-11T12:20:00.762Z,82.14
2023-02-11T12:21:04.755Z,81.95
2023-02-11T12:22:07.164Z,82.07
2023-02-11T12:23:11.232Z,82.00
2023-02-11T12:24:15.684Z,82.30
2023-02-11T12:25:16.057Z,82.22
2023-02-11T12:26:18.424Z,82.18
2023-02-11T12:27:22.610Z,82.26
2023-02-11T12:28:26.632Z,82.30
2023-02-11T12:29:28.916Z,82.35
2023-02-11T12:30:31.321Z,82.22
2023-02-11T12:31:33.728Z,82.12
2023-02-11T12:32:36.262Z,82.25
2023-02-11T12:33:38.599Z,82.55
2023-02-11T12:34:40.982Z,82.43
2023-02-11T12:35:43.736Z,82.32
2023-02-11T12:36:45.974Z,82.23
2023-02-11T12:37:48.399Z,82.25
2023-02-11T12:38:50.924Z,82.34
2023-02-11T12:39:54.960Z,82.62
2023-02-11T12:40:58.858Z,82.58
2023-02-11T12:42:01.058Z,82.52
2023-02-11T12:43:03.493Z,82.68
2023-02-11T12:44:05.921Z,82.39
2023-02-11T12:45:08.289Z,82.67
2023-02-11T12:46:10.754Z,82.75
2023-02-11T12:47:13.148Z,82.73
2023-02-11T12:48:15.621Z,82.76
2023-02-11T12:49:19.020Z,82.53
2023-02-11T12:50:21.335Z,82.50
2023-02-11T12:51:23.711Z,82.75
2023-02-11T12:52:27.778Z,82.81
2023-02-11T12:53:30.160Z,83.04
2023-02-11T12:54:34.234Z,82.92
2023-02-11T12:55:38.108Z,83.01
2023-02-11T12:56:40.541Z,82.83
2023-02-11T12:57:42.859Z,83.02
2023-02-11T12:58:45.946Z,82.87
2023-02-11T12:59:47.656Z,82.57
2023-02-11T13:00:50.600Z,82.77
2023-02-11T13:01:52.667Z,82.96
2023-02-11T13:02:54.981Z,82.44
2023-02-11T13:03:58.323Z,82.25
2023-02-11T13:05:00.665Z,82.37
2023-02-11T13:06:03.090Z,82.44
2023-02-11T13:07:05.576Z,82.21
2023-02-11T13:08:07.949Z,82.19
2023-02-11T13:09:13.128Z,82.44
2023-02-11T13:10:15.338Z,82.54
2023-02-11T13:11:18.771Z,82.60
2023-02-11T13:12:21.158Z,82.61
2023-02-11T13:13:23.577Z,82.50
2023-02-11T13:14:26.080Z,82.59
2023-02-11T13:15:28.432Z,82.23
2023-02-11T13:16:30.886Z,82.14
2023-02-11T13:17:33.305Z,82.44
2023-02-11T13:18:37.464Z,82.61
2023-02-11T13:19:40.572Z,82.59
2023-02-11T13:20:43.028Z,82.75
2023-02-11T13:21:45.412Z,82.52
2023-02-11T13:22:49.472Z,82.55
2023-02-11T13:23:53.423Z,82.63
2023-02-11T13:24:55.688Z,82.62
2023-02-11T13:25:58.187Z,82.54
2023-02-11T13:35:30.209Z,84.68
2023-02-11T13:36:32.668Z,84.42
2023-02-11T13:37:35.342Z,84.49
2023-02-11T13:38:37.722Z,83.94
2023-02-11T13:39:41.764Z,83.78
2023-02-11T13:40:45.717Z,83.60
2023-02-11T13:41:49.355Z,83.36
2023-02-11T13:42:50.782Z,83.02
2023-02-11T13:43:53.600Z,83.14
2023-02-11T13:44:59.910Z,83.10
2023-02-11T13:46:03.897Z,83.40
2023-02-11T13:47:06.329Z,82.74
2023-02-11T13:48:08.881Z,82.84
2023-02-11T13:49:11.506Z,83.08
2023-02-11T13:50:14.132Z,83.47
2023-02-11T13:51:16.676Z,83.25
2023-02-11T13:52:19.177Z,83.04
2023-02-11T13:53:21.457Z,82.10
2023-02-11T13:54:23.862Z,82.04
2023-02-11T13:55:26.380Z,82.15
2023-02-11T13:56:28.757Z,82.10
2023-02-11T13:57:31.471Z,82.13
2023-02-11T13:58:35.402Z,82.37
2023-02-11T13:59:39.296Z,82.21
2023-02-11T14:00:41.636Z,82.58
2023-02-11T14:01:44.196Z,82.58
2023-02-11T14:02:46.497Z,82.10
2023-02-11T14:03:50.417Z,82.09
2023-02-11T14:04:52.706Z,82.28
2023-02-11T14:05:55.075Z,82.29
2023-02-11T14:06:59.086Z,82.46
2023-02-11T14:08:03.099Z,82.89
2023-02-11T14:09:05.379Z,81.95
2023-02-11T14:10:09.425Z,82.27
2023-02-11T14:11:11.616Z,81.86
2023-02-11T14:12:15.549Z,81.66
2023-02-11T14:13:17.870Z,82.10
2023-02-11T14:14:20.253Z,82.16
2023-02-11T14:15:22.681Z,82.26
2023-02-11T14:16:37.235Z,81.97
2023-02-11T14:17:30.648Z,82.03
2023-02-11T14:18:35.130Z,81.56
2023-02-11T14:19:37.630Z,81.04
2023-02-11T14:20:40.003Z,81.53
2023-02-11T14:21:45.058Z,81.56
2023-02-11T14:22:47.341Z,81.53
2023-02-11T14:23:49.916Z,81.24
2023-02-11T14:24:52.237Z,80.72
2023-02-11T14:25:56.244Z,80.97
2023-02-11T14:26:58.665Z,81.10
2023-02-11T14:28:01.033Z,81.21
2023-02-11T14:29:03.463Z,80.79
2023-02-11T14:30:06.012Z,80.90
2023-02-11T14:31:11.019Z,80.84
2023-02-11T14:32:13.220Z,80.79
2023-02-11T14:33:19.424Z,81.05
2023-02-11T14:34:21.500Z,81.19
2023-02-11T14:35:23.959Z,81.16
2023-02-11T14:36:28.004Z,81.03
2023-02-11T14:37:33.978Z,81.42
2023-02-11T14:38:37.760Z,81.47
2023-02-11T14:39:40.025Z,81.22
2023-02-11T14:40:42.424Z,81.42
2023-02-11T14:41:45.825Z,81.14
2023-02-11T14:42:51.000Z,81.35
2023-02-11T14:43:53.233Z,81.30
2023-02-11T14:44:55.629Z,81.25
2023-02-11T14:45:59.739Z,81.64
2023-02-11T14:47:02.010Z,82.10
2023-02-11T14:48:06.077Z,81.50
2023-02-11T14:49:09.920Z,81.32
2023-02-11T14:50:12.205Z,81.42
2023-02-11T14:51:14.601Z,81.17
2023-02-11T14:52:17.001Z,81.19
2023-02-11T14:53:20.982Z,81.55
2023-02-11T14:54:23.293Z,81.39
2023-02-11T14:55:25.628Z,81.54
2023-02-11T14:56:28.160Z,81.49
2023-02-11T14:57:32.133Z,82.13
2023-02-11T14:58:36.080Z,81.88
2023-02-11T14:59:38.441Z,81.64
2023-02-11T15:00:40.750Z,81.93
2023-02-11T15:01:44.824Z,81.87
2023-02-11T15:02:47.165Z,81.58
2023-02-11T15:03:51.341Z,81.92
2023-02-11T15:04:53.571Z,81.73
2023-02-11T15:05:55.995Z,81.94
2023-02-11T15:07:00.030Z,81.89
2023-02-11T15:08:02.355Z,81.71
2023-02-11T15:09:04.726Z,81.81
2023-02-11T15:10:07.214Z,81.98
2023-02-11T15:11:09.632Z,82.11
2023-02-11T15:12:12.056Z,82.00
2023-02-11T15:13:16.114Z,82.27
2023-02-11T15:14:18.380Z,81.94
2023-02-11T15:15:22.478Z,82.12
2023-02-11T15:16:26.292Z,82.04
2023-02-11T15:17:28.675Z,82.29
2023-02-11T15:18:31.120Z,82.37
2023-02-11T15:19:34.569Z,82.07
2023-02-11T15:20:37.437Z,81.82
2023-02-11T15:21:39.733Z,81.81
2023-02-11T15:22:42.269Z,81.96
2023-02-11T15:23:44.624Z,81.91
2023-02-11T15:24:47.041Z,82.10
2023-02-11T15:25:49.865Z,82.06
2023-02-11T15:26:53.819Z,82.10
2023-02-11T15:27:56.167Z,82.13
2023-02-11T15:28:58.487Z,82.20
2023-02-11T15:30:00.947Z,82.07
2023-02-11T15:31:03.451Z,82.40
2023-02-11T15:32:06.104Z,82.43
2023-02-11T15:33:08.407Z,82.46
2023-02-11T15:34:12.284Z,82.34
2023-02-11T15:35:14.620Z,82.41
2023-02-11T15:36:18.640Z,82.61
2023-02-11T15:37:24.572Z,82.39
2023-02-11T15:38:26.738Z,82.45
2023-02-11T15:39:30.698Z,82.71
2023-02-11T15:40:33.030Z,82.59
2023-02-11T15:41:35.461Z,82.66
2023-02-11T15:42:50.865Z,82.68
2023-02-11T15:43:40.358Z,82.68
2023-02-11T15:53:13.508Z,84.85
2023-02-11T15:54:17.371Z,84.72
2023-02-11T15:55:19.733Z,84.70
2023-02-11T16:04:52.671Z,85.76
2023-02-11T16:05:54.992Z,85.66
2023-02-11T16:06:57.724Z,85.60
2023-02-11T16:07:59.981Z,85.52
2023-02-11T16:09:02.387Z,85.57
2023-02-11T16:10:06.460Z,85.45
2023-02-11T16:11:08.851Z,85.53
2023-02-11T16:12:12.817Z,85.20
2023-02-11T16:13:15.127Z,85.11
2023-02-11T16:14:17.501Z,85.01
2023-02-11T16:23:49.521Z,86.60
2023-02-11T16:24:55.744Z,86.87
2023-02-11T16:25:59.540Z,86.91
2023-02-11T16:27:01.857Z,86.57
2023-02-11T16:28:04.326Z,86.28
2023-02-11T16:37:36.941Z,87.34
2023-02-11T16:38:39.258Z,87.30
2023-02-11T16:48:13.011Z,87.70
2023-02-11T16:49:16.359Z,87.78
2023-02-11T16:50:18.646Z,87.60
2023-02-11T16:59:50.646Z,88.05
2023-02-11T17:00:55.019Z,88.14
2023-02-11T17:10:26.914Z,88.69
2023-02-11T17:19:58.114Z,89.06
2023-02-11T17:29:31.220Z,89.52
2023-02-11T17:39:07.024Z,90.04
2023-02-11T17:48:34.809Z,90.23
2023-02-11T17:58:09.020Z,90.91
2023-02-11T18:07:41.024Z,91.13
2023-02-11T18:17:14.289Z,91.42
2023-02-11T18:26:45.711Z,91.53
2023-02-11T18:36:17.774Z,91.53
2023-02-11T18:45:50.996Z,91.84
2023-02-11T18:46:52.913Z,91.88
2023-02-11T18:56:26.079Z,92.16
2023-02-11T19:06:02.948Z,92.80
2023-02-11T19:15:31.768Z,93.18
2023-02-11T19:25:02.824Z,93.63
2023-02-11T19:34:34.988Z,93.71
2023-02-11T19:44:04.317Z,93.77
2023-02-11T19:53:37.524Z,94.09
2023-02-11T20:03:09.692Z,94.46
2023-02-11T20:12:42.738Z,95.13
2023-02-11T20:22:15.869Z,95.54
2023-02-11T20:31:49.880Z,96.00
2023-02-11T20:41:20.405Z,96.04
2023-02-11T20:50:54.035Z,96.10
2023-02-11T21:00:27.645Z,96.04
2023-02-11T21:10:01.326Z,96.58
2023-02-11T21:19:35.077Z,96.96
2023-02-11T21:29:07.928Z,97.18
2023-02-11T21:38:41.519Z,98.51
2023-02-11T21:48:14.610Z,98.99
2023-02-11T21:57:48.079Z,98.96
2023-02-11T22:07:21.795Z,100.00
2023-02-11T22:16:55.095Z,100.00
2023-02-11T22:26:28.659Z,100.00
2023-02-11T22:36:03.862Z,100.00
2023-02-11T22:45:37.294Z,100.00
2023-02-11T22:55:08.968Z,100.00
2023-02-11T22:56:14.018Z,100.00
2023-02-11T23:05:46.210Z,100.00
2023-02-11T23:15:18.065Z,100.00
2023-02-11T23:24:51.857Z,100.00
2023-02-11T23:34:25.585Z,100.00
2023-02-11T23:43:59.384Z,100.00
2023-02-11T23:53:35.926Z,100.00
